createdAt,value
2023-01-02T00:03:21.909Z,97964.72
2023-01-02T00:08:24.286Z,97971.47
2023-01-02T00:13:26.788Z,97979.94
2023-01-02T00:18:29.031Z,97895.22
2023-01-02T00:23:31.540Z,98072.31
2023-01-02T00:28:34.213Z,98060.94
2023-01-02T00:33:37.195Z,98025.19
2023-01-02T00:38:40.695Z,98121.13
2023-01-02T00:43:43.901Z,98131.25
2023-01-02T00:48:46.183Z,98039.31
2023-01-02T00:53:48.565Z,98074.63
2023-01-02T00:58:50.810Z,98108.25
2023-01-02T01:03:56.000Z,98046.47
2023-01-02T01:08:58.278Z,97918.13
2023-01-02T01:14:01.959Z,98144.84
2023-01-02T01:19:04.296Z,98130.16
2023-01-02T01:24:06.954Z,98162.78
2023-01-02T01:29:09.182Z,98161.72
2023-01-02T01:34:15.208Z,98174.66
2023-01-02T01:39:17.497Z,98222.94
2023-01-02T01:44:45.597Z,98272.34
2023-01-02T01:49:48.420Z,98179.16
2023-01-02T01:55:16.829Z,98266.72
2023-01-02T02:00:21.278Z,98297.97
2023-01-02T02:05:27.188Z,98272.59
2023-01-02T02:10:29.635Z,98273.97
2023-01-02T02:15:41.557Z,98296.53
2023-01-02T02:20:53.854Z,98329.34
2023-01-02T02:26:14.333Z,98376.13
2023-01-02T02:31:21.179Z,98381.13
2023-01-02T02:36:29.400Z,98391.47
2023-01-02T02:41:33.627Z,98331.50
2023-01-02T02:46:56.558Z,98397.22
2023-01-02T02:52:10.923Z,98418.72
2023-01-02T02:57:13.780Z,98367.13
2023-01-02T03:02:17.845Z,98414.69
2023-01-02T03:07:34.498Z,98451.06
2023-01-02T03:12:59.642Z,98461.34
2023-01-02T03:18:31.284Z,98467.88
2023-01-02T03:23:43.606Z,98494.53
2023-01-02T03:28:48.320Z,98502.06
2023-01-02T03:33:52.922Z,98486.03
2023-01-02T03:39:00.728Z,98510.75
2023-01-02T03:44:04.314Z,98505.19
2023-01-02T03:49:14.188Z,98556.63
2023-01-02T03:54:16.391Z,98562.72
2023-01-02T03:59:43.093Z,98574.34
2023-01-02T04:04:58.829Z,98597.28
2023-01-02T04:10:01.755Z,98582.22
2023-01-02T04:15:15.748Z,98595.31
2023-01-02T04:20:22.351Z,98594.16
2023-01-02T04:25:28.370Z,98587.78
2023-01-02T04:30:32.651Z,98613.78
2023-01-02T04:35:35.364Z,98569.75
2023-01-02T04:40:38.494Z,98613.41
2023-01-02T04:45:40.874Z,98561.63
2023-01-02T04:50:43.972Z,98576.25
2023-01-02T04:55:46.307Z,98620.41
2023-01-02T05:00:48.521Z,98655.53
2023-01-02T05:05:50.776Z,98686.41
2023-01-02T05:10:53.018Z,98687.09
2023-01-02T05:15:56.877Z,98705.44
2023-01-02T05:21:03.800Z,98715.50
2023-01-02T05:26:11.864Z,98749.16
2023-01-02T05:31:14.267Z,98701.72
2023-01-02T05:36:16.455Z,98655.16
2023-01-02T05:41:20.124Z,98755.31
2023-01-02T05:46:22.571Z,98777.63
2023-01-02T05:51:24.793Z,98756.50
2023-01-02T05:56:28.301Z,98764.59
2023-01-02T06:01:30.743Z,98759.06
2023-01-02T06:06:38.173Z,98817.34
2023-01-02T06:11:41.649Z,98834.38
2023-01-02T06:16:43.914Z,98826.16
2023-01-02T06:21:46.203Z,98791.13
2023-01-02T06:26:48.400Z,98863.16
2023-01-02T06:31:51.915Z,98848.88
2023-01-02T06:36:54.378Z,98872.88
2023-01-02T06:41:56.666Z,98892.75
2023-01-02T06:46:58.948Z,98905.56
2023-01-02T06:52:01.247Z,98849.94
2023-01-02T06:57:03.555Z,98870.84
2023-01-02T07:02:06.483Z,98840.88
2023-01-02T07:07:09.070Z,98894.03
2023-01-02T07:12:11.340Z,98915.50
2023-01-02T07:17:13.541Z,98905.75
2023-01-02T07:22:18.772Z,98957.13
2023-01-02T07:27:21.007Z,98887.97
2023-01-02T07:32:27.334Z,98907.25
2023-01-02T07:37:30.109Z,98827.22
2023-01-02T07:42:32.564Z,98849.50
2023-01-02T07:47:34.819Z,98908.59
2023-01-02T07:52:37.020Z,98944.34
2023-01-02T07:57:39.215Z,98948.16
2023-01-02T08:02:41.584Z,98954.63
2023-01-02T08:07:45.427Z,98984.00
2023-01-02T08:12:47.783Z,98982.97
2023-01-02T08:17:51.149Z,98965.94
2023-01-02T08:22:53.539Z,98968.03
2023-01-02T08:27:55.725Z,98955.41
2023-01-02T08:32:57.995Z,98999.28
2023-01-02T08:38:00.296Z,98983.91
2023-01-02T08:43:02.723Z,99012.63
2023-01-02T08:48:20.252Z,99020.03
2023-01-02T08:53:23.569Z,98985.81
2023-01-02T08:58:25.826Z,98977.81
2023-01-02T09:03:31.184Z,99070.22
2023-01-02T09:08:33.445Z,99012.44
2023-01-02T09:13:35.738Z,99018.56
2023-01-02T09:18:39.141Z,99071.53
2023-01-02T09:23:41.581Z,99065.13
2023-01-02T09:28:44.116Z,99081.94
2023-01-02T09:33:47.826Z,99100.16
2023-01-02T09:39:00.764Z,99089.22
2023-01-02T09:44:11.828Z,99101.91
2023-01-02T09:49:17.733Z,99115.56
2023-01-02T09:54:40.001Z,99087.31
2023-01-02T09:59:51.536Z,99110.53
2023-01-02T10:05:31.048Z,99142.16
2023-01-02T10:10:41.984Z,99143.66
2023-01-02T10:15:47.371Z,99149.34
2023-01-02T10:20:55.930Z,99159.03
2023-01-02T10:26:04.465Z,99155.19
2023-01-02T10:31:14.879Z,99121.44
2023-01-02T10:36:35.439Z,99172.16
2023-01-02T10:41:37.972Z,99154.44
2023-01-02T10:46:41.671Z,99080.41
2023-01-02T11:02:55.289Z,99198.09
2023-01-02T11:07:58.288Z,99174.75
2023-01-02T11:13:23.365Z,99261.09
2023-01-02T11:18:30.792Z,99237.59
2023-01-02T11:23:38.570Z,99248.56
2023-01-02T11:28:41.613Z,99251.41
2023-01-02T11:33:44.873Z,99311.09
2023-01-02T11:44:06.515Z,99319.22
2023-01-02T11:49:12.317Z,99330.34
2023-01-02T11:54:19.914Z,99289.34
2023-01-02T11:59:37.135Z,99261.28
2023-01-02T12:04:40.084Z,99292.81
2023-01-02T12:09:53.457Z,99326.09
2023-01-02T12:15:07.748Z,99336.97
2023-01-02T12:20:13.132Z,99330.09
2023-01-02T12:25:34.024Z,99349.75
2023-01-02T12:30:40.706Z,99307.34
2023-01-02T12:36:02.837Z,99366.75
2023-01-02T12:42:02.566Z,99347.38
2023-01-02T12:47:24.010Z,99372.41
2023-01-02T12:52:51.141Z,99387.84
2023-01-02T13:09:22.317Z,99402.72
2023-01-02T13:14:38.624Z,99351.31
2023-01-02T13:19:47.567Z,99350.94
2023-01-02T13:24:51.102Z,99366.19
2023-01-02T13:29:53.953Z,99409.63
2023-01-02T13:40:26.881Z,99398.38
2023-01-02T13:45:42.194Z,99399.16
2023-01-02T13:50:45.607Z,99389.00
2023-01-02T13:56:18.517Z,99445.50
2023-01-02T14:01:21.637Z,99440.06
2023-01-02T14:06:30.578Z,99434.50
2023-01-02T14:11:57.811Z,99448.84
2023-01-02T14:17:27.575Z,99453.03
2023-01-02T14:22:29.778Z,99410.41
2023-01-02T14:27:33.523Z,99437.44
2023-01-02T14:32:39.391Z,99452.38
2023-01-02T14:37:45.590Z,99461.91
2023-01-02T14:43:19.776Z,99400.56
2023-01-02T14:48:30.498Z,99444.84
2023-01-02T14:53:37.940Z,99414.88
2023-01-02T14:58:44.221Z,99400.44
2023-01-02T15:03:51.742Z,99488.19
2023-01-02T15:08:59.440Z,99433.06
2023-01-02T15:14:04.011Z,99457.44
2023-01-02T15:19:16.005Z,99458.06
2023-01-02T15:24:30.619Z,99478.59
2023-01-02T15:34:50.969Z,99447.06
2023-01-02T15:39:53.776Z,99393.34
2023-01-02T15:45:13.436Z,99509.53
2023-01-02T15:50:22.489Z,99509.38
2023-01-02T15:55:27.039Z,99479.38
2023-01-02T16:00:38.417Z,99457.41
2023-01-02T16:05:55.477Z,99472.25
2023-01-02T16:11:04.794Z,99539.69
2023-01-02T16:21:31.361Z,99527.13
2023-01-02T16:26:40.558Z,99474.25
2023-01-02T16:31:58.478Z,99486.41
2023-01-02T16:37:16.755Z,99538.84
2023-01-02T16:42:36.937Z,99496.97
2023-01-02T16:47:43.329Z,99520.91
2023-01-02T16:52:46.019Z,99468.66
2023-01-02T16:57:50.755Z,99511.16
2023-01-02T17:08:09.368Z,99472.66
2023-01-02T17:13:12.036Z,99497.53
2023-01-02T17:18:18.765Z,99509.38
2023-01-02T17:23:22.542Z,99491.69
2023-01-02T17:28:25.232Z,99513.16
2023-01-02T17:33:30.495Z,99498.00
2023-01-02T17:38:32.917Z,99445.16
2023-01-02T17:43:35.381Z,99516.34
2023-01-02T17:48:38.085Z,99451.63
2023-01-02T17:53:43.363Z,99494.66
2023-01-02T17:58:46.121Z,99464.75
2023-01-02T18:03:51.659Z,99514.00
2023-01-02T18:08:55.915Z,99483.63
2023-01-02T18:19:17.672Z,99493.31
2023-01-02T18:29:59.276Z,99475.31
2023-01-02T18:35:46.648Z,99463.06
2023-01-02T18:40:37.792Z,99469.88
2023-01-02T18:45:41.412Z,99475.88
2023-01-02T18:50:46.805Z,99465.47
2023-01-02T18:55:51.709Z,99464.25
2023-01-02T19:06:21.422Z,99517.00
2023-01-02T19:11:52.406Z,99490.28
2023-01-02T19:17:13.605Z,99519.56
2023-01-02T19:22:21.859Z,99455.78
2023-01-02T19:27:37.349Z,99490.75
2023-01-02T19:32:39.913Z,99456.97
2023-01-02T19:37:43.485Z,99463.91
2023-01-02T19:48:04.510Z,99523.78
2023-01-02T19:53:07.000Z,99503.13
2023-01-02T19:58:11.576Z,99531.66
2023-01-02T20:03:14.012Z,99509.97
2023-01-02T20:08:16.376Z,99490.97
2023-01-02T20:13:20.926Z,99537.63
2023-01-02T20:18:23.417Z,99516.06
2023-01-02T20:23:25.723Z,99498.22
2023-01-02T20:28:28.056Z,99500.59
2023-01-02T20:33:30.446Z,99471.47
2023-01-02T20:38:32.737Z,99532.47
2023-01-02T20:43:35.211Z,99448.69
2023-01-02T20:48:37.677Z,99500.56
2023-01-02T20:53:40.008Z,99445.03
2023-01-02T20:58:42.331Z,99526.44
2023-01-02T21:03:44.757Z,99472.72
2023-01-02T21:08:47.099Z,99519.41
2023-01-02T21:13:52.407Z,99459.50
2023-01-02T21:18:54.722Z,99486.88
2023-01-02T21:23:57.271Z,99465.84
2023-01-02T21:28:59.823Z,99470.25
2023-01-02T21:34:02.131Z,99500.97
2023-01-02T21:39:04.575Z,99512.91
2023-01-02T21:44:07.488Z,99386.56
2023-01-02T21:49:09.828Z,99434.97
2023-01-02T21:54:12.411Z,99399.91
2023-01-02T21:59:14.664Z,99422.50
2023-01-02T22:09:33.194Z,99457.97
2023-01-02T22:14:37.431Z,99470.28
2023-01-02T22:19:40.179Z,99439.16
2023-01-02T22:24:44.710Z,99403.38
2023-01-02T22:35:22.509Z,99401.41
2023-01-02T22:40:24.975Z,99403.53
2023-01-02T22:45:33.847Z,99453.22
2023-01-02T22:50:42.724Z,99440.53
2023-01-02T22:55:45.031Z,99412.69
2023-01-02T23:00:48.603Z,99414.97
2023-01-02T23:11:08.245Z,99411.56
2023-01-02T23:16:29.030Z,99332.81
2023-01-02T23:21:33.283Z,99389.53
2023-01-02T23:31:56.482Z,99289.94
2023-01-02T23:37:00.403Z,99356.41
2023-01-02T23:42:03.402Z,99334.75
2023-01-02T23:47:10.885Z,99312.13
2023-01-02T23:52:16.942Z,99311.38
2023-01-02T23:57:19.712Z,99309.06
